Time;durP1;ratioP1;P1;durP2;ratioP2;P2;SDS_P1;SDS_P2;PMS_P1;PMS_P2;Temp;Humidity;BMP_temperature;BMP_pressure;BME280_temperature;BME280_humidity;BME280_pressure;Samples;Min_cycle;Max_cycle;Signal;HPM_P1;HPM_P2
2023/08/04 00:00:30;;;;;;;0.40;0.40;;;;;;;14.65;85.75;96343.06;29395;250;63009;-56
2023/08/04 00:01:05;;;;;;;0.40;0.40;;;;;;;14.64;85.86;96344.19;29394;314;64009;-55
2023/08/04 00:01:36;;;;;;;0.40;0.40;;;;;;;14.64;86.06;96338.72;29395;337;63009;-55
2023/08/04 00:02:07;;;;;;;0.40;0.40;;;;;;;14.65;85.55;96343.06;29395;257;63004;-55
2023/08/04 00:02:39;;;;;;;0.40;0.40;;;;;;;14.64;86.00;96348.84;29394;248;64013;-55
2023/08/04 00:03:10;;;;;;;0.40;0.40;;;;;;;14.62;85.83;96346.44;29395;211;63004;-59
2023/08/04 00:03:42;;;;;;;0.50;0.50;;;;;;;14.61;86.16;96344.06;29395;321;63009;-55
2023/08/04 00:04:13;;;;;;;0.40;0.40;;;;;;;14.60;85.89;96345.97;29395;248;63004;-55
2023/08/04 00:04:46;;;;;;;0.40;0.40;;;;;;;14.60;85.98;96343.25;29395;198;63009;-55
2023/08/04 00:05:17;;;;;;;0.40;0.40;;;;;;;14.61;86.05;96350.31;29395;198;63005;-55
2023/08/04 00:05:49;;;;;;;0.40;0.40;;;;;;;14.60;86.24;96348.72;29395;357;63009;-58
2023/08/04 00:06:20;;;;;;;0.40;0.40;;;;;;;14.61;86.34;96346.78;29395;203;63005;-59
2023/08/04 00:06:52;;;;;;;0.40;0.40;;;;;;;14.60;86.41;96343.25;29395;207;63009;-55
2023/08/04 00:07:23;;;;;;;0.40;0.40;;;;;;;14.60;86.70;96342.44;29394;224;64009;-54
2023/08/04 00:07:55;;;;;;;0.40;0.40;;;;;;;14.58;86.82;96345.50;29395;220;63009;-55
2023/08/04 00:08:26;;;;;;;0.40;0.40;;;;;;;14.57;86.52;96338.44;29395;254;63005;-55
2023/08/04 00:08:57;;;;;;;0.40;0.40;;;;;;;14.56;86.01;96347.78;29395;243;63009;-55
2023/08/04 00:09:28;;;;;;;0.40;0.40;;;;;;;14.55;86.11;96340.75;29395;376;63004;-54
2023/08/04 00:10:04;;;;;;;0.40;0.40;;;;;;;14.55;86.09;96339.94;29395;300;63009;-55
2023/08/04 00:10:35;;;;;;;0.40;0.40;;;;;;;14.54;86.22;96344.59;29395;198;63004;-56
2023/08/04 00:11:07;;;;;;;0.40;0.40;;;;;;;14.54;86.18;96333.69;29394;222;64013;-55
2023/08/04 00:11:38;;;;;;;0.40;0.40;;;;;;;14.56;86.09;96341.50;29395;201;63012;-55
2023/08/04 00:12:09;;;;;;;0.40;0.40;;;;;;;14.57;86.91;96348.56;29395;220;63008;-59
2023/08/04 00:12:43;;;;;;;0.40;0.40;;;;;;;14.57;86.92;96338.44;29395;206;63005;-55
2023/08/04 00:13:14;;;;;;;0.43;0.43;;;;;;;14.59;86.99;96341.66;29395;201;63009;-54
2023/08/04 00:13:46;;;;;;;0.40;0.40;;;;;;;14.57;86.66;96343.91;29395;362;63005;-55
2023/08/04 00:14:17;;;;;;;0.40;0.40;;;;;;;14.57;86.44;96343.13;29395;209;63009;-59
2023/08/04 00:14:48;;;;;;;0.40;0.40;;;;;;;14.56;86.46;96342.31;29395;197;63005;-55
2023/08/04 00:15:20;;;;;;;0.40;0.40;;;;;;;14.56;86.73;96342.31;29395;212;63009;-55
2023/08/04 00:15:51;;;;;;;0.40;0.40;;;;;;;14.54;86.10;96339.16;29395;282;63005;-55
2023/08/04 00:16:23;;;;;;;0.40;0.40;;;;;;;14.54;86.32;96344.59;29394;224;64013;-54
2023/08/04 00:16:54;;;;;;;0.40;0.40;;;;;;;14.52;86.31;96341.41;29394;327;64009;-55
2023/08/04 00:17:25;;;;;;;0.40;0.40;;;;;;;14.51;86.52;96345.25;29395;210;63009;-55
2023/08/04 00:17:57;;;;;;;0.40;0.40;;;;;;;14.51;87.03;96350.72;29395;216;63004;-54
2023/08/04 00:18:28;;;;;;;0.40;0.40;;;;;;;14.49;87.15;96350.25;29395;322;63009;-55
2023/08/04 00:20:16;;;;;;;0.42;0.42;;;;;;;14.48;87.17;96351.38;88180;202;64004;-92
2023/08/04 00:20:50;;;;;;;0.40;0.40;;;;;;;14.48;87.56;96356.03;29394;215;64009;-92
2023/08/04 00:21:21;;;;;;;0.43;0.43;;;;;;;14.47;87.77;96349.78;29395;229;63005;-90
2023/08/04 00:22:13;;;;;;;0.40;0.40;;;;;;;14.47;87.82;96360.69;29395;202;63009;-91
2023/08/04 00:22:54;;;;;;;0.47;0.47;;;;;;;14.45;87.98;96354.78;29394;248;64009;-91
2023/08/04 00:23:27;;;;;;;0.50;0.50;;;;;;;14.45;88.09;96346.59;29395;252;63014;-90
2023/08/04 00:24:03;;;;;;;0.40;0.40;;;;;;;14.46;88.25;96353.62;29395;268;63004;-92
2023/08/04 00:24:37;;;;;;;0.40;0.40;;;;;;;14.45;88.35;96357.50;29395;286;63009;-91
2023/08/04 00:25:33;;;;;;;0.40;0.40;;;;;;;14.45;88.39;96352.03;29395;361;63004;-92
2023/08/04 00:26:13;;;;;;;0.40;0.40;;;;;;;14.46;88.89;96359.09;29395;206;63008;-90
2023/08/04 00:26:48;;;;;;;0.40;0.40;;;;;;;14.46;89.20;96348.19;29395;235;63004;-91
2023/08/04 00:27:47;;;;;;;0.40;0.40;;;;;;;14.45;88.23;96352.03;29395;241;63009;-90
2023/08/04 00:28:57;;;;;;;0.40;0.40;;;;;;;14.43;88.71;96348.03;29394;221;64009;-92
2023/08/04 00:29:32;;;;;;;0.47;0.47;;;;;;;14.42;88.37;96349.97;29395;220;63009;-90
2023/08/04 00:30:09;;;;;;;0.50;0.50;;;;;;;14.42;88.73;96347.25;29395;228;63009;-91
2023/08/04 00:30:42;;;;;;;0.50;0.50;;;;;;;14.42;88.21;96347.25;29394;285;64013;-89
2023/08/04 00:31:15;;;;;;;0.50;0.50;;;;;;;14.41;88.54;96348.38;29395;198;63004;-92
2023/08/04 00:31:48;;;;;;;0.50;0.50;;;;;;;14.40;88.56;96350.25;29395;199;63009;-91
2023/08/04 00:32:23;;;;;;;0.40;0.40;;;;;;;14.40;88.70;96350.25;29395;267;63004;-90
2023/08/04 00:32:54;;;;;;;0.40;0.40;;;;;;;14.37;87.82;96350.13;29395;222;63009;-92
2023/08/04 00:33:28;;;;;;;0.40;0.40;;;;;;;14.33;87.54;96352.72;29394;256;64009;-91
2023/08/04 00:34:01;;;;;;;0.40;0.40;;;;;;;14.32;87.55;96347.59;29395;221;63008;-91
2023/08/04 00:34:33;;;;;;;0.50;0.50;;;;;;;14.29;88.09;96342.78;29395;206;63005;-89
2023/08/04 00:35:07;;;;;;;0.43;0.43;;;;;;;14.28;88.05;96347.44;29395;205;63009;-91
2023/08/04 00:35:39;;;;;;;0.47;0.47;;;;;;;14.28;88.82;96352.09;29395;333;63005;-91
2023/08/04 00:36:10;;;;;;;0.43;0.43;;;;;;;14.26;88.20;96349.69;29395;259;63009;-90
2023/08/04 00:36:45;;;;;;;0.50;0.50;;;;;;;14.24;88.31;96345.69;29395;224;63005;-90
2023/08/04 00:37:26;;;;;;;0.50;0.50;;;;;;;14.23;88.80;96344.09;29395;204;63009;-92
2023/08/04 00:37:57;;;;;;;;;;;;;;;14.25;88.90;96352.75;29996;983;6000;-92
2023/08/04 00:38:28;;;;;;;0.50;0.50;;;;;;;14.22;88.81;96353.41;29421;208;64009;-92
2023/08/04 00:39:01;;;;;;;0.40;0.40;;;;;;;14.21;88.51;96351.81;29395;198;63009;-92
2023/08/04 00:39:34;;;;;;;0.50;0.50;;;;;;;14.22;88.82;96350.69;29395;204;63011;-90
2023/08/04 00:40:11;;;;;;;0.50;0.50;;;;;;;14.23;89.23;96350.34;29395;315;63009;-92
2023/08/04 00:40:42;;;;;;;0.50;0.50;;;;;;;14.23;89.08;96346.81;29394;347;64008;-92
2023/08/04 00:41:15;;;;;;;0.40;0.40;;;;;;;14.23;89.41;96349.56;29394;200;64013;-91
2023/08/04 00:41:47;;;;;;;0.45;0.45;;;;;;;14.23;89.20;96349.56;29395;231;63005;-93
2023/08/04 00:42:20;;;;;;;0.40;0.40;;;;;;;14.23;88.56;96349.56;29395;204;63009;-90
2023/08/04 00:42:52;;;;;;;0.50;0.50;;;;;;;14.22;88.45;96347.94;29395;197;63005;-91
2023/08/04 00:43:25;;;;;;;0.43;0.43;;;;;;;14.22;88.65;96354.22;29395;368;63009;-89
2023/08/04 00:43:57;;;;;;;0.40;0.40;;;;;;;14.21;88.33;96354.53;29395;202;63005;-91
2023/08/04 00:44:28;;;;;;;0.47;0.47;;;;;;;14.21;88.69;96355.34;29395;226;63016;-93
2023/08/04 00:45:08;;;;;;;0.50;0.50;;;;;;;14.22;88.99;96354.22;29395;218;63005;-91
2023/08/04 00:45:42;;;;;;;0.50;0.50;;;;;;;14.23;89.23;96353.06;29394;300;64013;-91
2023/08/04 00:46:16;;;;;;;0.40;0.40;;;;;;;14.24;89.23;96351.94;29395;273;63004;-91
2023/08/04 00:46:49;;;;;;;0.47;0.47;;;;;;;14.23;89.18;96349.56;29395;267;63009;-92
2023/08/04 00:47:25;;;;;;;0.45;0.45;;;;;;;14.26;89.22;96354.34;29395;197;63004;-91
2023/08/04 00:48:00;;;;;;;0.40;0.40;;;;;;;14.24;88.96;96351.94;29394;199;64013;-92
2023/08/04 00:48:35;;;;;;;0.50;0.50;;;;;;;14.23;88.83;96350.34;29395;215;63004;-91
2023/08/04 00:49:17;;;;;;;0.40;0.40;;;;;;;14.23;88.85;96349.56;29417;203;63009;-91
2023/08/04 00:49:53;;;;;;;0.50;0.50;;;;;;;14.22;88.28;96358.88;29394;270;64005;-91
2023/08/04 00:50:32;;;;;;;0.50;0.50;;;;;;;14.20;88.55;96351.03;29394;341;64014;-91
2023/08/04 00:51:06;;;;;;;0.45;0.45;;;;;;;14.21;88.55;96354.53;29395;289;63005;-90
2023/08/04 00:51:41;;;;;;;0.40;0.40;;;;;;;14.20;88.70;96356.50;29395;325;63009;-91
2023/08/04 00:52:15;;;;;;;0.40;0.40;;;;;;;14.22;88.70;96347.94;29395;365;63005;-92
2023/08/04 00:52:50;;;;;;;0.50;0.50;;;;;;;14.22;89.03;96353.41;29395;318;63027;-92
2023/08/04 00:53:26;;;;;;;0.50;0.50;;;;;;;14.23;89.17;96349.56;29395;320;63004;-92
2023/08/04 00:54:09;;;;;;;0.40;0.40;;;;;;;14.21;89.10;96349.06;29395;257;63009;-94
2023/08/04 00:54:45;;;;;;;0.50;0.50;;;;;;;14.21;89.36;96346.34;29395;206;63004;-91
2023/08/04 00:55:42;;;;;;;0.50;0.50;;;;;;;14.24;89.56;96356.59;29395;196;63009;-91
2023/08/04 00:56:55;;;;;;;;;;;;;;;;;;;;;
2023/08/04 00:58:18;;;;;;;0.43;0.43;;;;;;;14.20;88.71;96356.50;29395;240;63008;-55
2023/08/04 00:58:51;;;;;;;0.50;0.50;;;;;;;14.19;88.49;96354.09;29395;197;63005;-55
2023/08/04 00:59:23;;;;;;;0.50;0.50;;;;;;;14.17;88.75;96356.34;29395;196;63009;-55
2023/08/04 00:59:58;;;;;;;0.40;0.40;;;;;;;14.17;89.02;96356.34;29395;347;63010;-54
2023/08/04 01:00:29;;;;;;;0.40;0.40;;;;;;;14.18;88.99;96360.69;29395;263;63009;-55
2023/08/04 01:01:00;;;;;;;0.50;0.50;;;;;;;14.17;88.91;96359.06;29395;331;63004;-54
2023/08/04 01:01:32;;;;;;;0.50;0.50;;;;;;;14.16;88.54;96357.47;29394;326;64013;-54
2023/08/04 01:02:05;;;;;;;0.40;0.40;;;;;;;14.18;88.85;96366.13;29395;216;63004;-54
2023/08/04 01:02:36;;;;;;;0.40;0.40;;;;;;;14.16;88.44;96360.19;29395;196;63009;-54
2023/08/04 01:03:12;;;;;;;0.40;0.40;;;;;;;14.16;88.24;96365.66;29394;225;64008;-54
2023/08/04 01:03:47;;;;;;;0.40;0.40;;;;;;;14.16;88.28;96360.19;29395;226;63008;-57
2023/08/04 01:04:20;;;;;;;0.40;0.40;;;;;;;14.13;87.86;96361.66;29395;332;63005;-56
2023/08/04 01:04:51;;;;;;;0.40;0.40;;;;;;;14.12;87.64;96360.06;29395;274;63009;-56
2023/08/04 01:05:31;;;;;;;0.50;0.50;;;;;;;14.08;87.44;96368.09;29395;219;63005;-56
2023/08/04 01:06:38;;;;;;;0.50;0.50;;;;;;;14.12;86.98;96359.25;29439;206;63009;-54
2023/08/04 01:07:33;;;;;;;0.40;0.40;;;;;;;14.12;87.11;96365.50;29371;218;64009;-61
2023/08/04 01:08:18;;;;;;;0.50;0.50;;;;;;;14.10;87.10;96365.03;29395;210;63009;-57
2023/08/04 01:09:07;;;;;;;0.50;0.50;;;;;;;14.08;87.12;96370.03;29395;204;63016;-55
2023/08/04 01:10:11;;;;;;;0.47;0.47;;;;;;;14.06;86.31;96367.63;29395;208;63009;-55
2023/08/04 01:10:53;;;;;;;0.40;0.40;;;;;;;14.07;87.25;96369.22;29395;253;63015;-56
2023/08/04 01:11:32;;;;;;;0.50;0.50;;;;;;;14.05;86.90;96366.03;29395;204;63008;-55
2023/08/04 01:12:31;;;;;;;0.50;0.50;;;;;;;14.00;87.68;96365.41;29394;254;64009;-55
2023/08/04 01:13:07;;;;;;;0.50;0.50;;;;;;;13.96;87.42;96367.16;29395;227;63009;-57
2023/08/04 01:13:42;;;;;;;0.40;0.40;;;;;;;13.94;87.25;96369.44;29395;219;63011;-55
2023/08/04 01:14:15;;;;;;;0.50;0.50;;;;;;;13.93;87.57;96370.56;29395;258;63009;-55
2023/08/04 01:14:52;;;;;;;0.50;0.50;;;;;;;13.93;87.46;96367.81;29395;199;63005;-54
2023/08/04 01:15:26;;;;;;;0.50;0.50;;;;;;;13.90;87.70;96369.28;29395;210;63024;-54
2023/08/04 01:15:59;;;;;;;0.50;0.50;;;;;;;13.92;87.84;96361.56;29395;259;63004;-55
2023/08/04 01:16:31;;;;;;;0.50;0.50;;;;;;;13.91;87.40;96370.88;29395;214;63009;-54
2023/08/04 01:17:22;;;;;;;0.40;0.40;;;;;;;13.91;87.70;96375.53;29395;202;63004;-58
2023/08/04 01:17:57;;;;;;;0.50;0.50;;;;;;;13.88;88.87;96376.97;29394;192;64013;-53
2023/08/04 01:18:28;;;;;;;0.50;0.50;;;;;;;13.86;89.37;96368.31;29395;212;63005;-55
2023/08/04 01:18:59;;;;;;;0.50;0.50;;;;;;;13.84;89.51;96370.59;29395;216;63009;-58
2023/08/04 01:19:30;;;;;;;0.40;0.40;;;;;;;13.83;89.08;96368.19;29395;209;63005;-55
2023/08/04 01:20:05;;;;;;;0.43;0.43;;;;;;;13.83;90.12;96373.66;29394;216;64009;-55
2023/08/04 01:20:36;;;;;;;0.45;0.45;;;;;;;13.78;90.11;96358.28;29395;214;63005;-55
2023/08/04 01:21:10;;;;;;;0.50;0.50;;;;;;;13.78;89.78;96366.44;29395;219;63009;-58
2023/08/04 01:21:42;;;;;;;0.50;0.50;;;;;;;13.78;90.20;96368.38;29395;292;63005;-54
2023/08/04 01:22:14;;;;;;;0.50;0.50;;;;;;;13.76;90.24;96374.16;29395;231;63009;-55
2023/08/04 01:22:45;;;;;;;0.50;0.50;;;;;;;13.74;89.73;96365.50;29395;305;63004;-55
2023/08/04 01:23:17;;;;;;;0.50;0.50;;;;;;;13.76;89.62;96357.78;29394;206;64013;-55
2023/08/04 01:23:48;;;;;;;0.50;0.50;;;;;;;13.77;89.65;96369.50;29395;203;63004;-55
2023/08/04 01:24:19;;;;;;;0.45;0.45;;;;;;;13.77;89.80;96366.78;29395;209;63009;-54
2023/08/04 01:24:52;;;;;;;0.50;0.50;;;;;;;13.77;90.30;96369.50;29395;219;63004;-54
2023/08/04 01:25:28;;;;;;;0.50;0.50;;;;;;;13.78;90.43;96358.28;29395;208;63008;-55
2023/08/04 01:26:02;;;;;;;0.40;0.40;;;;;;;13.79;90.56;96362.59;29394;202;64009;-55
2023/08/04 01:26:37;;;;;;;0.50;0.50;;;;;;;13.80;90.46;96364.19;29395;200;63009;-55
2023/08/04 01:27:12;;;;;;;0.50;0.50;;;;;;;13.80;89.89;96360.66;29395;215;63005;-54
2023/08/04 01:27:48;;;;;;;0.50;0.50;;;;;;;13.80;89.86;96369.66;29395;197;63009;-58
2023/08/04 01:28:21;;;;;;;0.50;0.50;;;;;;;13.79;90.07;96362.59;29394;212;64009;-54
2023/08/04 01:28:52;;;;;;;0.50;0.50;;;;;;;13.78;89.58;96355.53;29395;271;63009;-54
2023/08/04 01:29:24;;;;;;;0.50;0.50;;;;;;;13.82;89.86;96356.50;29395;232;63005;-54
2023/08/04 01:30:00;;;;;;;0.50;0.50;;;;;;;13.84;89.15;96359.69;29395;221;63009;-54
2023/08/04 01:30:32;;;;;;;0.50;0.50;;;;;;;13.85;88.37;96353.13;29395;277;63004;-54
2023/08/04 01:31:06;;;;;;;0.50;0.50;;;;;;;13.86;88.65;96353.91;29395;232;63009;-54
2023/08/04 01:31:38;;;;;;;0.50;0.50;;;;;;;13.85;88.12;96355.84;29394;270;64009;-55
2023/08/04 01:32:10;;;;;;;0.50;0.50;;;;;;;13.86;88.11;96351.97;29395;235;63009;-55
2023/08/04 01:32:42;;;;;;;0.40;0.40;;;;;;;13.86;88.22;96357.41;29395;231;63004;-55
2023/08/04 01:33:14;;;;;;;0.50;0.50;;;;;;;13.86;88.45;96357.41;29395;204;63008;-55
2023/08/04 01:33:46;;;;;;;0.50;0.50;;;;;;;13.86;88.76;96346.50;29395;202;63005;-54
2023/08/04 01:34:17;;;;;;;0.50;0.50;;;;;;;13.87;88.96;96352.75;29395;214;63009;-55
2023/08/04 01:34:52;;;;;;;0.50;0.50;;;;;;;13.88;89.25;96355.16;29394;217;64009;-55
2023/08/04 01:35:26;;;;;;;0.50;0.50;;;;;;;13.89;88.39;96351.31;29395;244;63009;-54
2023/08/04 01:35:57;;;;;;;0.45;0.45;;;;;;;13.89;88.13;96355.97;29395;228;63005;-54
2023/08/04 01:36:28;;;;;;;0.50;0.50;;;;;;;13.88;88.10;96357.09;29395;233;63009;-54
2023/08/04 01:37:00;;;;;;;0.50;0.50;;;;;;;13.88;87.97;96348.91;29395;273;63005;-54
2023/08/04 01:37:32;;;;;;;0.50;0.50;;;;;;;13.85;87.80;96353.13;29394;224;64013;-53
2023/08/04 01:38:04;;;;;;;0.40;0.40;;;;;;;13.86;87.82;96356.66;29395;217;63004;-54
2023/08/04 01:38:35;;;;;;;0.40;0.40;;;;;;;13.86;88.10;96351.97;29394;259;64013;-54
2023/08/04 01:39:06;;;;;;;0.43;0.43;;;;;;;13.86;87.57;96353.91;29395;203;63017;-54
2023/08/04 01:39:38;;;;;;;0.50;0.50;;;;;;;13.86;87.92;96351.19;29395;197;63009;-55
2023/08/04 01:40:11;;;;;;;0.40;0.40;;;;;;;13.85;87.59;96353.13;29395;237;63004;-59
2023/08/04 01:40:42;;;;;;;0.50;0.50;;;;;;;13.86;88.11;96349.22;29395;203;63008;-55
2023/08/04 01:41:13;;;;;;;0.43;0.43;;;;;;;13.89;88.24;96350.50;29395;220;63005;-54
2023/08/04 01:41:45;;;;;;;0.50;0.50;;;;;;;13.88;88.14;96355.16;29395;228;63012;-54
2023/08/04 01:42:16;;;;;;;0.50;0.50;;;;;;;13.87;87.68;96345.38;29395;268;63005;-55
2023/08/04 01:42:47;;;;;;;0.50;0.50;;;;;;;13.87;87.92;96348.09;29395;205;63009;-54
2023/08/04 01:43:21;;;;;;;0.50;0.50;;;;;;;13.86;87.73;96346.50;29395;305;63005;-54
2023/08/04 01:43:53;;;;;;;0.50;0.50;;;;;;;13.89;87.92;96340.41;29394;228;64013;-54
2023/08/04 01:44:24;;;;;;;0.45;0.45;;;;;;;13.89;88.33;96343.13;29395;255;63005;-55
2023/08/04 01:44:55;;;;;;;0.50;0.50;;;;;;;13.90;88.17;96347.47;29395;221;63009;-54
2023/08/04 01:45:27;;;;;;;0.50;0.50;;;;;;;13.90;88.04;96342.00;29395;273;63004;-54
2023/08/04 01:45:58;;;;;;;0.50;0.50;;;;;;;13.91;87.86;96345.53;29395;196;63009;-54
2023/08/04 01:46:30;;;;;;;0.50;0.50;;;;;;;13.89;87.88;96340.41;29395;292;63018;-54
2023/08/04 01:47:03;;;;;;;0.40;0.40;;;;;;;13.89;87.99;96350.50;29395;273;63009;-55
2023/08/04 01:47:34;;;;;;;0.50;0.50;;;;;;;13.88;88.07;96346.97;29395;196;63016;-55
2023/08/04 01:48:05;;;;;;;0.50;0.50;;;;;;;13.89;88.32;96345.84;29395;219;63008;-57
2023/08/04 01:48:37;;;;;;;0.50;0.50;;;;;;;13.91;88.26;96343.59;29394;218;64009;-55
2023/08/04 01:49:09;;;;;;;0.50;0.50;;;;;;;13.91;88.04;96351.78;29395;222;63009;-55
2023/08/04 01:49:41;;;;;;;0.50;0.50;;;;;;;13.89;88.30;96340.41;29394;223;64009;-55
2023/08/04 01:50:12;;;;;;;0.40;0.40;;;;;;;13.86;88.11;96341.06;29395;226;63009;-56
2023/08/04 01:50:47;;;;;;;0.50;0.50;;;;;;;13.86;88.78;96345.75;29395;211;63005;-55
2023/08/04 01:51:18;;;;;;;0.50;0.50;;;;;;;13.86;88.69;96346.50;29395;224;63009;-55
2023/08/04 01:51:51;;;;;;;0.50;0.50;;;;;;;13.86;88.73;96346.50;29395;230;63005;-55
2023/08/04 01:52:26;;;;;;;0.45;0.45;;;;;;;13.85;88.70;96339.47;29395;198;63023;-55
2023/08/04 01:52:58;;;;;;;0.40;0.40;;;;;;;13.85;87.93;96342.22;29394;242;64004;-55
2023/08/04 01:53:29;;;;;;;0.50;0.50;;;;;;;13.84;88.20;96332.44;29395;207;63009;-56
2023/08/04 01:54:00;;;;;;;0.50;0.50;;;;;;;13.85;88.19;96339.47;29395;220;63004;-56
2023/08/04 01:54:33;;;;;;;0.50;0.50;;;;;;;13.85;88.78;96339.47;29395;248;63017;-55
2023/08/04 01:55:05;;;;;;;0.50;0.50;;;;;;;13.83;88.43;96336.28;29394;215;64008;-55
2023/08/04 01:55:37;;;;;;;0.50;0.50;;;;;;;13.83;88.59;96340.94;29394;210;64007;-54
2023/08/04 01:56:09;;;;;;;0.50;0.50;;;;;;;13.83;88.05;96335.47;29394;219;64009;-55
2023/08/04 01:56:49;;;;;;;0.40;0.40;;;;;;;13.82;87.67;96339.34;29395;224;63009;-56
2023/08/04 01:57:20;;;;;;;0.50;0.50;;;;;;;13.83;87.78;96341.72;29395;304;63005;-55
2023/08/04 01:57:51;;;;;;;0.50;0.50;;;;;;;13.82;88.07;96340.13;29395;206;63021;-55
2023/08/04 01:58:22;;;;;;;0.50;0.50;;;;;;;13.86;87.96;96343.00;29395;214;63005;-55
2023/08/04 01:58:54;;;;;;;0.50;0.50;;;;;;;13.86;87.60;96341.06;29395;206;63009;-54
2023/08/04 01:59:25;;;;;;;0.50;0.50;;;;;;;13.86;87.56;96335.59;29395;229;63005;-54
2023/08/04 01:59:56;;;;;;;0.50;0.50;;;;;;;13.85;87.64;96334.03;29395;223;63009;-55
2023/08/04 02:00:29;;;;;;;0.50;0.50;;;;;;;13.86;87.83;96338.31;29395;222;63004;-55
2023/08/04 02:01:00;;;;;;;0.50;0.50;;;;;;;13.87;87.66;96341.84;29394;203;64029;-55
2023/08/04 02:01:31;;;;;;;0.50;0.50;;;;;;;13.87;87.59;96337.19;29395;210;63004;-55
2023/08/04 02:02:03;;;;;;;0.40;0.40;;;;;;;13.87;88.26;96345.38;29395;203;63009;-55
2023/08/04 02:02:36;;;;;;;0.50;0.50;;;;;;;13.89;87.96;96334.94;29395;199;63004;-54
2023/08/04 02:03:07;;;;;;;0.50;0.50;;;;;;;13.89;87.82;96340.41;29394;206;64013;-59
2023/08/04 02:03:39;;;;;;;0.45;0.45;;;;;;;13.87;87.69;96347.31;29395;290;63005;-55
2023/08/04 02:04:10;;;;;;;0.40;0.40;;;;;;;13.87;87.82;96353.56;29395;218;63009;-55
2023/08/04 02:04:42;;;;;;;0.50;0.50;;;;;;;13.89;88.37;96347.78;29395;254;63005;-55
2023/08/04 02:05:14;;;;;;;0.50;0.50;;;;;;;13.88;88.06;96341.53;29395;331;63009;-56
2023/08/04 02:05:48;;;;;;;0.50;0.50;;;;;;;13.89;87.80;96348.59;29395;196;63005;-55
2023/08/04 02:06:20;;;;;;;0.50;0.50;;;;;;;13.89;87.91;96342.31;29395;273;63009;-54
2023/08/04 02:06:52;;;;;;;0.40;0.40;;;;;;;13.87;87.58;96342.66;29395;198;63005;-54
2023/08/04 02:07:23;;;;;;;0.40;0.40;;;;;;;13.87;87.68;96348.09;29394;337;64013;-55
2023/08/04 02:07:55;;;;;;;0.45;0.45;;;;;;;13.87;88.11;96348.09;29395;206;63004;-56
2023/08/04 02:08:26;;;;;;;0.50;0.50;;;;;;;13.85;88.40;96342.22;29395;250;63009;-55
2023/08/04 02:08:57;;;;;;;0.50;0.50;;;;;;;13.83;88.29;96344.47;29395;218;63004;-55
2023/08/04 02:09:29;;;;;;;0.50;0.50;;;;;;;13.81;87.26;96340.47;29395;210;63015;-55
2023/08/04 02:10:00;;;;;;;0.45;0.45;;;;;;;13.78;87.56;96339.19;29395;199;63008;-54
2023/08/04 02:10:33;;;;;;;0.50;0.50;;;;;;;13.79;87.95;96346.25;29395;204;63008;-56
2023/08/04 02:11:04;;;;;;;0.45;0.45;;;;;;;13.78;87.49;96349.28;29395;221;63005;-55
2023/08/04 02:11:39;;;;;;;0.40;0.40;;;;;;;13.79;87.47;96338.06;29394;213;64014;-55
2023/08/04 02:12:10;;;;;;;0.50;0.50;;;;;;;13.80;87.84;96341.59;29395;210;63005;-55
2023/08/04 02:12:42;;;;;;;0.50;0.50;;;;;;;13.81;88.01;96338.53;29395;235;63009;-55
2023/08/04 02:13:13;;;;;;;0.50;0.50;;;;;;;13.81;88.41;96338.53;29395;218;63005;-55
2023/08/04 02:13:44;;;;;;;0.50;0.50;;;;;;;13.80;88.43;96342.37;29395;222;63009;-57
2023/08/04 02:14:16;;;;;;;0.50;0.50;;;;;;;13.81;88.38;96337.72;29395;239;63005;-55
2023/08/04 02:14:47;;;;;;;0.50;0.50;;;;;;;13.80;88.58;96342.37;29395;252;63009;-55
2023/08/04 02:15:19;;;;;;;0.50;0.50;;;;;;;13.80;88.36;96336.94;29395;223;63004;-55
2023/08/04 02:15:50;;;;;;;0.50;0.50;;;;;;;13.80;88.58;96336.13;29395;222;63009;-59
2023/08/04 02:16:21;;;;;;;0.50;0.50;;;;;;;13.80;88.44;96339.66;29395;247;63004;-55
2023/08/04 02:16:52;;;;;;;0.50;0.50;;;;;;;13.81;88.54;96343.19;29394;222;64013;-59
2023/08/04 02:17:28;;;;;;;0.50;0.50;;;;;;;13.80;88.17;96345.09;29395;227;63004;-55
2023/08/04 02:17:59;;;;;;;0.50;0.50;;;;;;;13.79;87.81;96340.78;29394;266;64013;-55
2023/08/04 02:18:30;;;;;;;0.50;0.50;;;;;;;13.78;88.17;96338.38;29395;278;63004;-55
2023/08/04 02:19:08;;;;;;;0.50;0.50;;;;;;;13.78;88.13;96338.38;29395;215;63009;-55
2023/08/04 02:19:39;;;;;;;0.50;0.50;;;;;;;13.78;87.96;96343.84;29395;229;63005;-59
2023/08/04 02:20:11;;;;;;;0.50;0.50;;;;;;;13.78;88.08;96341.91;29395;197;63017;-55
2023/08/04 02:20:44;;;;;;;0.43;0.43;;;;;;;13.77;88.19;96343.03;29395;205;63005;-56
2023/08/04 02:21:15;;;;;;;0.45;0.45;;;;;;;13.76;88.73;96341.44;29395;265;63009;-55
2023/08/04 02:21:47;;;;;;;0.40;0.40;;;;;;;13.75;88.51;96343.34;29395;206;63005;-55
2023/08/04 02:22:18;;;;;;;0.50;0.50;;;;;;;13.78;88.88;96350.09;29395;212;63009;-55
2023/08/04 02:22:49;;;;;;;0.50;0.50;;;;;;;13.78;88.82;96344.63;29394;203;64009;-55
2023/08/04 02:23:20;;;;;;;0.50;0.50;;;;;;;13.80;88.47;96339.66;29395;254;63009;-55
2023/08/04 02:23:52;;;;;;;0.50;0.50;;;;;;;13.81;88.42;96349.44;29395;225;63004;-59
2023/08/04 02:24:23;;;;;;;0.47;0.47;;;;;;;13.81;88.05;96343.97;29395;204;63009;-56
2023/08/04 02:24:54;;;;;;;0.50;0.50;;;;;;;13.80;88.37;96342.37;29395;222;63004;-56
2023/08/04 02:25:30;;;;;;;0.40;0.40;;;;;;;13.83;88.44;96346.38;29395;216;63009;-55
2023/08/04 02:26:02;;;;;;;0.40;0.40;;;;;;;13.83;87.95;96344.47;29395;227;63005;-56
2023/08/04 02:26:35;;;;;;;0.50;0.50;;;;;;;13.87;88.57;96348.09;29395;325;63009;-56
2023/08/04 02:27:07;;;;;;;0.50;0.50;;;;;;;13.88;88.78;96346.97;29395;230;63005;-56
2023/08/04 02:27:38;;;;;;;0.50;0.50;;;;;;;13.90;87.46;96341.19;29394;214;64013;-60
2023/08/04 02:28:10;;;;;;;0.50;0.50;;;;;;;13.93;87.57;96340.56;29395;226;63007;-55
2023/08/04 02:28:41;;;;;;;0.40;0.40;;;;;;;13.92;86.99;96339.75;29395;233;63009;-55
2023/08/04 02:29:13;;;;;;;0.50;0.50;;;;;;;13.92;86.74;96339.75;29395;199;63005;-55
2023/08/04 02:29:44;;;;;;;0.40;0.40;;;;;;;13.92;86.99;96342.47;29395;211;63009;-56
2023/08/04 02:30:15;;;;;;;0.50;0.50;;;;;;;13.93;86.95;96352.25;29395;271;63004;-54
2023/08/04 02:30:47;;;;;;;0.50;0.50;;;;;;;13.92;86.75;96344.41;29394;202;64013;-54
2023/08/04 02:31:19;;;;;;;0.40;0.40;;;;;;;13.92;87.02;96345.19;29394;221;64009;-59
2023/08/04 02:31:51;;;;;;;0.40;0.40;;;;;;;13.94;87.26;96342.94;29395;303;63009;-55
2023/08/04 02:32:22;;;;;;;0.47;0.47;;;;;;;13.94;87.26;96345.69;29395;257;63004;-55
2023/08/04 02:32:53;;;;;;;0.50;0.50;;;;;;;13.96;86.69;96345.34;29395;215;63009;-60
2023/08/04 02:33:25;;;;;;;0.50;0.50;;;;;;;13.96;85.77;96346.16;29395;216;63005;-55
2023/08/04 02:33:56;;;;;;;0.50;0.50;;;;;;;13.97;85.51;96345.03;29394;333;64014;-60
2023/08/04 02:34:30;;;;;;;0.50;0.50;;;;;;;13.95;85.45;96344.56;29395;298;63005;-55
2023/08/04 02:35:02;;;;;;;0.50;0.50;;;;;;;13.93;85.78;96346.81;29395;213;63009;-56
2023/08/04 02:35:34;;;;;;;0.50;0.50;;;;;;;13.93;85.53;96338.62;29395;233;63005;-56
2023/08/04 02:36:05;;;;;;;0.40;0.40;;;;;;;13.96;85.64;96350.81;29395;219;63009;-56
2023/08/04 02:36:36;;;;;;;0.45;0.45;;;;;;;13.98;85.67;96338.44;29395;227;63005;-56
2023/08/04 02:37:07;;;;;;;0.43;0.43;;;;;;;13.98;85.48;96346.62;29395;241;63009;-61
2023/08/04 02:37:38;;;;;;;0.40;0.40;;;;;;;13.96;85.85;96343.44;29395;227;63010;-56
2023/08/04 02:38:10;;;;;;;0.50;0.50;;;;;;;13.96;86.25;96345.34;29395;262;63009;-56
2023/08/04 02:38:45;;;;;;;0.50;0.50;;;;;;;13.95;86.72;96346.47;29395;202;63004;-56
2023/08/04 02:39:17;;;;;;;0.43;0.43;;;;;;;13.96;86.88;96350.81;29394;238;64013;-56
2023/08/04 02:39:48;;;;;;;0.50;0.50;;;;;;;13.98;86.38;96345.81;29395;246;63006;-56
2023/08/04 02:40:19;;;;;;;0.50;0.50;;;;;;;13.97;86.79;96345.03;29395;230;63008;-55
2023/08/04 02:40:50;;;;;;;0.40;0.40;;;;;;;13.97;86.69;96347.75;29395;255;63005;-55
2023/08/04 02:41:22;;;;;;;0.40;0.40;;;;;;;13.98;86.76;96338.44;29395;218;63009;-56
2023/08/04 02:41:53;;;;;;;0.50;0.50;;;;;;;13.99;86.40;96350.16;29395;204;63005;-56
2023/08/04 02:42:24;;;;;;;0.40;0.40;;;;;;;13.98;86.27;96340.38;29395;205;63009;-56
2023/08/04 02:42:56;;;;;;;0.40;0.40;;;;;;;13.99;86.62;96345.50;29394;213;64009;-55
2023/08/04 02:43:28;;;;;;;0.40;0.40;;;;;;;14.02;86.06;96344.03;29395;218;63009;-56
2023/08/04 02:44:00;;;;;;;0.50;0.50;;;;;;;14.03;85.84;96341.00;29394;208;64009;-55